Impacts METAR Board
IDs:

KBWI - Baltimore-Washington, MD, US

Updated at: 0500 UTC 17 Aug 2018
Potential Impact None Slight Moderate High
Time 16/17Z 16/18Z 16/19Z 16/20Z 16/21Z 16/22Z 16/23Z 17/00Z 17/01Z 17/02Z 17/03Z 17/04Z 17/05Z
Temp90 91 91 91 90 87 86 83 82 81 80 78 77
Dewpt70 69 69 71 69 73 74 75 74 73 73 73 73
Altim30.09 30.09 30.08 30.06 30.05 30.05 30.06 30.06 30.08 30.10 30.09 30.10 30.10
VIS10 10 10 10 10 10 10 10 10 10 10 10 10
CIG250 250 250 160 160 250 250 250 -- -- -- -- --
CoverBKNBKNBKNBKNBKNBKNBKNBKNSCTSCTSCTSCTFEW
FltCatVFRVFRVFRVFRVFRVFRVFRVFRVFRVFRVFRVFRVFR
WX--------------------------
WDir020026020019016017016019020019000
WSpd0 6 8 5 3 5 4 4 4 4 3 0 0
WGst-- -- -- -- -- -- -- -- -- -- -- -- --
Raw hourly METARs
KBWI 161654Z 00000KT 10SM SCT050TCU SCT160 BKN250 32/21 A3009 RMK AO2 SLP189 TCU W T03220211
KBWI 161754Z 20006KT 10SM SCT050TCU SCT160 BKN250 33/21 A3009 RMK AO2 SLP187 TCU ALQDS T03280206 10328 20228 56007
KBWI 161854Z 26008KT 10SM SCT055TCU SCT110 SCT160 BKN250 33/21 A3008 RMK AO2 SLP183 TCU ALQDS T03280206
KBWI 161954Z 20005KT 10SM SCT050 BKN160 BKN250 33/22 A3006 RMK AO2 SLP177 T03280217
KBWI 162054Z 19003KT 10SM SCT055 SCT085 BKN160 BKN250 32/21 A3005 RMK AO2 SLP175 T03220206 56012
KBWI 162154Z 16005KT 10SM SCT055 SCT085 BKN250 31/23 A3005 RMK AO2 SLP175 T03060228
KBWI 162254Z 17004KT 10SM FEW055 SCT160 BKN250 30/23 A3006 RMK AO2 SLP177 T03000233
KBWI 162354Z 16004KT 10SM FEW055 SCT160 BKN250 28/24 A3006 RMK AO2 SLP178 T02830239 10333 20283 53003
KBWI 170054Z 19004KT 10SM FEW160 SCT250 28/23 A3008 RMK AO2 SLP184 T02780233
KBWI 170154Z 20004KT 10SM FEW160 SCT250 27/23 A3010 RMK AO2 SLP190 T02720228
KBWI 170254Z 19003KT 10SM SCT250 27/23 A3009 RMK AO2 SLP189 T02670228 50010
KBWI 170354Z 00000KT 10SM FEW110 SCT250 26/23 A3010 RMK AO2 SLP191 T02560228
KBWI 170454Z 00000KT 10SM FEW110 FEW250 25/23 A3010 RMK AO2 SLP191 T02500228 403330200



Page loaded:  05:26 UTC  |   10:26 PM Pacific  |   11:26 PM Mountain  |   12:26 AM Central  |   01:26 AM Eastern

 

ADVISORIES

FORECASTS

FORECASTS

OBSERVATIONS

USER TOOLS

ABOUT US